sensor_id;sensor_type;location;lat;lon;timestamp;P1;durP1;ratioP1;P2;durP2;ratioP2
28447;SDS011;15675;52.870;-1.416;2023-04-23T00:00:05;65.22;;;39.55;;
28447;SDS011;15675;52.870;-1.416;2023-04-23T00:02:32;68.90;;;40.33;;
28447;SDS011;15675;52.870;-1.416;2023-04-23T00:05:02;60.42;;;35.47;;
28447;SDS011;15675;52.870;-1.416;2023-04-23T00:07:31;66.60;;;38.60;;
28447;SDS011;15675;52.870;-1.416;2023-04-23T00:09:58;65.10;;;40.35;;
28447;SDS011;15675;52.870;-1.416;2023-04-23T00:12:26;59.85;;;38.00;;
28447;SDS011;15675;52.870;-1.416;2023-04-23T00:14:53;69.63;;;40.15;;
28447;SDS011;15675;52.870;-1.416;2023-04-23T00:17:19;62.60;;;38.63;;
28447;SDS011;15675;52.870;-1.416;2023-04-23T00:19:45;69.47;;;36.50;;
28447;SDS011;15675;52.870;-1.416;2023-04-23T00:22:12;62.88;;;37.47;;
28447;SDS011;15675;52.870;-1.416;2023-04-23T00:24:38;71.63;;;39.33;;
28447;SDS011;15675;52.870;-1.416;2023-04-23T00:27:04;71.13;;;40.53;;
28447;SDS011;15675;52.870;-1.416;2023-04-23T00:29:30;66.68;;;39.25;;
28447;SDS011;15675;52.870;-1.416;2023-04-23T00:31:56;68.45;;;40.38;;
28447;SDS011;15675;52.870;-1.416;2023-04-23T00:34:22;67.38;;;38.28;;
28447;SDS011;15675;52.870;-1.416;2023-04-23T00:36:50;71.00;;;40.47;;
28447;SDS011;15675;52.870;-1.416;2023-04-23T00:39:15;68.47;;;40.92;;
28447;SDS011;15675;52.870;-1.416;2023-04-23T00:41:41;70.13;;;38.72;;
28447;SDS011;15675;52.870;-1.416;2023-04-23T00:44:08;69.32;;;38.55;;
28447;SDS011;15675;52.870;-1.416;2023-04-23T00:46:35;68.88;;;39.90;;
28447;SDS011;15675;52.870;-1.416;2023-04-23T00:49:02;69.68;;;40.50;;
28447;SDS011;15675;52.870;-1.416;2023-04-23T00:51:28;70.97;;;41.25;;
28447;SDS011;15675;52.870;-1.416;2023-04-23T00:53:54;73.68;;;43.03;;
28447;SDS011;15675;52.870;-1.416;2023-04-23T00:56:21;66.57;;;40.67;;
28447;SDS011;15675;52.870;-1.416;2023-04-23T00:58:48;74.47;;;42.00;;
28447;SDS011;15675;52.870;-1.416;2023-04-23T01:01:14;70.68;;;41.35;;
28447;SDS011;15675;52.870;-1.416;2023-04-23T01:03:42;71.45;;;39.53;;
28447;SDS011;15675;52.870;-1.416;2023-04-23T01:06:09;77.00;;;42.28;;
28447;SDS011;15675;52.870;-1.416;2023-04-23T01:08:34;71.60;;;42.63;;
28447;SDS011;15675;52.870;-1.416;2023-04-23T01:11:01;73.68;;;43.38;;
28447;SDS011;15675;52.870;-1.416;2023-04-23T01:13:27;78.03;;;44.35;;
28447;SDS011;15675;52.870;-1.416;2023-04-23T01:15:55;75.47;;;41.38;;
28447;SDS011;15675;52.870;-1.416;2023-04-23T01:18:22;79.07;;;44.85;;
28447;SDS011;15675;52.870;-1.416;2023-04-23T01:20:47;77.78;;;45.05;;
28447;SDS011;15675;52.870;-1.416;2023-04-23T01:23:15;75.53;;;43.05;;
28447;SDS011;15675;52.870;-1.416;2023-04-23T01:25:41;74.25;;;41.97;;
28447;SDS011;15675;52.870;-1.416;2023-04-23T01:28:08;79.13;;;42.13;;
28447;SDS011;15675;52.870;-1.416;2023-04-23T01:30:35;83.97;;;44.97;;
28447;SDS011;15675;52.870;-1.416;2023-04-23T01:33:01;82.13;;;46.33;;
28447;SDS011;15675;52.870;-1.416;2023-04-23T01:35:26;84.55;;;46.42;;
28447;SDS011;15675;52.870;-1.416;2023-04-23T01:37:53;79.68;;;43.88;;
28447;SDS011;15675;52.870;-1.416;2023-04-23T01:40:20;84.60;;;46.95;;
28447;SDS011;15675;52.870;-1.416;2023-04-23T01:42:46;87.47;;;46.28;;
28447;SDS011;15675;52.870;-1.416;2023-04-23T01:45:13;86.20;;;46.17;;
28447;SDS011;15675;52.870;-1.416;2023-04-23T01:47:41;87.72;;;45.70;;
28447;SDS011;15675;52.870;-1.416;2023-04-23T01:50:08;78.75;;;43.15;;
28447;SDS011;15675;52.870;-1.416;2023-04-23T01:52:33;89.60;;;47.17;;
28447;SDS011;15675;52.870;-1.416;2023-04-23T01:54:59;79.40;;;43.45;;
28447;SDS011;15675;52.870;-1.416;2023-04-23T01:57:26;92.32;;;45.70;;
28447;SDS011;15675;52.870;-1.416;2023-04-23T02:00:05;79.28;;;44.13;;
28447;SDS011;15675;52.870;-1.416;2023-04-23T02:02:33;83.07;;;43.05;;
28447;SDS011;15675;52.870;-1.416;2023-04-23T02:05:00;92.30;;;44.58;;
28447;SDS011;15675;52.870;-1.416;2023-04-23T02:07:30;83.03;;;44.58;;
28447;SDS011;15675;52.870;-1.416;2023-04-23T02:09:56;80.85;;;43.78;;
28447;SDS011;15675;52.870;-1.416;2023-04-23T02:12:23;80.65;;;43.20;;
28447;SDS011;15675;52.870;-1.416;2023-04-23T02:14:49;90.20;;;46.70;;
28447;SDS011;15675;52.870;-1.416;2023-04-23T02:17:15;86.18;;;45.55;;
28447;SDS011;15675;52.870;-1.416;2023-04-23T02:19:40;90.65;;;47.72;;
28447;SDS011;15675;52.870;-1.416;2023-04-23T02:22:06;89.25;;;47.53;;
28447;SDS011;15675;52.870;-1.416;2023-04-23T02:24:32;86.75;;;46.42;;
28447;SDS011;15675;52.870;-1.416;2023-04-23T02:26:59;84.15;;;44.10;;
28447;SDS011;15675;52.870;-1.416;2023-04-23T02:29:25;82.85;;;44.47;;
28447;SDS011;15675;52.870;-1.416;2023-04-23T02:31:51;77.25;;;40.05;;
28447;SDS011;15675;52.870;-1.416;2023-04-23T02:34:16;69.50;;;36.95;;
28447;SDS011;15675;52.870;-1.416;2023-04-23T02:36:42;88.38;;;45.08;;
28447;SDS011;15675;52.870;-1.416;2023-04-23T02:39:08;86.65;;;43.63;;
28447;SDS011;15675;52.870;-1.416;2023-04-23T02:41:33;90.38;;;45.38;;
28447;SDS011;15675;52.870;-1.416;2023-04-23T02:43:59;88.97;;;46.35;;
28447;SDS011;15675;52.870;-1.416;2023-04-23T02:46:25;90.30;;;46.83;;
28447;SDS011;15675;52.870;-1.416;2023-04-23T02:48:51;90.57;;;45.30;;
28447;SDS011;15675;52.870;-1.416;2023-04-23T02:51:17;84.13;;;43.00;;
28447;SDS011;15675;52.870;-1.416;2023-04-23T02:53:42;89.35;;;43.88;;
28447;SDS011;15675;52.870;-1.416;2023-04-23T02:56:08;82.65;;;40.85;;
28447;SDS011;15675;52.870;-1.416;2023-04-23T02:58:34;84.32;;;45.03;;
28447;SDS011;15675;52.870;-1.416;2023-04-23T03:00:59;85.53;;;42.83;;
28447;SDS011;15675;52.870;-1.416;2023-04-23T03:03:26;83.28;;;43.45;;
28447;SDS011;15675;52.870;-1.416;2023-04-23T03:05:56;88.20;;;45.50;;
28447;SDS011;15675;52.870;-1.416;2023-04-23T03:08:21;94.80;;;45.28;;
28447;SDS011;15675;52.870;-1.416;2023-04-23T03:10:47;93.97;;;45.33;;
28447;SDS011;15675;52.870;-1.416;2023-04-23T03:13:13;86.45;;;44.35;;
28447;SDS011;15675;52.870;-1.416;2023-04-23T03:15:39;83.57;;;43.97;;
28447;SDS011;15675;52.870;-1.416;2023-04-23T03:18:05;93.68;;;45.47;;
28447;SDS011;15675;52.870;-1.416;2023-04-23T03:20:33;89.88;;;43.38;;
28447;SDS011;15675;52.870;-1.416;2023-04-23T03:23:00;101.47;;;46.88;;
28447;SDS011;15675;52.870;-1.416;2023-04-23T03:25:25;92.30;;;47.80;;
28447;SDS011;15675;52.870;-1.416;2023-04-23T03:27:51;95.53;;;48.63;;
28447;SDS011;15675;52.870;-1.416;2023-04-23T03:30:18;97.20;;;49.42;;
28447;SDS011;15675;52.870;-1.416;2023-04-23T03:32:44;95.10;;;47.53;;
28447;SDS011;15675;52.870;-1.416;2023-04-23T03:35:10;105.43;;;51.20;;
28447;SDS011;15675;52.870;-1.416;2023-04-23T03:37:35;107.95;;;50.45;;
28447;SDS011;15675;52.870;-1.416;2023-04-23T03:40:01;101.78;;;49.35;;
28447;SDS011;15675;52.870;-1.416;2023-04-23T03:42:32;97.95;;;49.22;;
28447;SDS011;15675;52.870;-1.416;2023-04-23T03:44:59;94.25;;;47.63;;
28447;SDS011;15675;52.870;-1.416;2023-04-23T03:47:25;108.80;;;49.35;;
28447;SDS011;15675;52.870;-1.416;2023-04-23T03:49:51;102.63;;;49.80;;
28447;SDS011;15675;52.870;-1.416;2023-04-23T03:52:17;100.75;;;49.72;;
28447;SDS011;15675;52.870;-1.416;2023-04-23T03:54:43;112.72;;;51.03;;
28447;SDS011;15675;52.870;-1.416;2023-04-23T03:57:09;107.75;;;49.45;;
28447;SDS011;15675;52.870;-1.416;2023-04-23T03:59:36;102.70;;;51.03;;
28447;SDS011;15675;52.870;-1.416;2023-04-23T04:02:02;106.68;;;50.20;;
28447;SDS011;15675;52.870;-1.416;2023-04-23T04:04:31;103.80;;;48.33;;
28447;SDS011;15675;52.870;-1.416;2023-04-23T04:06:58;100.78;;;50.40;;
28447;SDS011;15675;52.870;-1.416;2023-04-23T04:09:27;94.28;;;47.78;;
28447;SDS011;15675;52.870;-1.416;2023-04-23T04:11:53;99.88;;;47.28;;
28447;SDS011;15675;52.870;-1.416;2023-04-23T04:14:19;99.85;;;48.63;;
28447;SDS011;15675;52.870;-1.416;2023-04-23T04:16:45;103.78;;;49.53;;
28447;SDS011;15675;52.870;-1.416;2023-04-23T04:19:10;101.30;;;47.03;;
28447;SDS011;15675;52.870;-1.416;2023-04-23T04:21:36;103.35;;;48.25;;
28447;SDS011;15675;52.870;-1.416;2023-04-23T04:24:02;100.07;;;47.20;;
28447;SDS011;15675;52.870;-1.416;2023-04-23T04:26:31;100.38;;;49.20;;
28447;SDS011;15675;52.870;-1.416;2023-04-23T04:28:58;97.20;;;48.30;;
28447;SDS011;15675;52.870;-1.416;2023-04-23T04:31:28;102.28;;;49.20;;
28447;SDS011;15675;52.870;-1.416;2023-04-23T04:33:55;97.60;;;46.85;;
28447;SDS011;15675;52.870;-1.416;2023-04-23T04:36:21;97.35;;;48.70;;
28447;SDS011;15675;52.870;-1.416;2023-04-23T04:38:50;99.32;;;48.90;;
28447;SDS011;15675;52.870;-1.416;2023-04-23T04:41:25;103.22;;;49.85;;
28447;SDS011;15675;52.870;-1.416;2023-04-23T04:43:52;97.07;;;47.38;;
28447;SDS011;15675;52.870;-1.416;2023-04-23T04:46:19;99.43;;;47.85;;
28447;SDS011;15675;52.870;-1.416;2023-04-23T04:48:48;100.72;;;48.17;;
28447;SDS011;15675;52.870;-1.416;2023-04-23T04:51:14;98.70;;;48.90;;
28447;SDS011;15675;52.870;-1.416;2023-04-23T04:53:40;96.30;;;46.17;;
28447;SDS011;15675;52.870;-1.416;2023-04-23T04:56:06;90.47;;;42.85;;
28447;SDS011;15675;52.870;-1.416;2023-04-23T04:58:34;92.28;;;41.92;;
28447;SDS011;15675;52.870;-1.416;2023-04-23T05:01:00;89.10;;;42.75;;
28447;SDS011;15675;52.870;-1.416;2023-04-23T05:03:26;88.00;;;44.08;;
28447;SDS011;15675;52.870;-1.416;2023-04-23T05:05:52;86.55;;;41.53;;
28447;SDS011;15675;52.870;-1.416;2023-04-23T05:08:22;90.53;;;45.28;;
28447;SDS011;15675;52.870;-1.416;2023-04-23T05:10:49;89.90;;;41.95;;
28447;SDS011;15675;52.870;-1.416;2023-04-23T05:13:15;84.78;;;41.38;;
28447;SDS011;15675;52.870;-1.416;2023-04-23T05:15:41;85.05;;;41.72;;
28447;SDS011;15675;52.870;-1.416;2023-04-23T05:18:08;71.57;;;36.58;;
28447;SDS011;15675;52.870;-1.416;2023-04-23T05:20:34;75.32;;;37.38;;
28447;SDS011;15675;52.870;-1.416;2023-04-23T05:23:00;77.30;;;38.45;;
28447;SDS011;15675;52.870;-1.416;2023-04-23T05:25:28;72.53;;;34.63;;
28447;SDS011;15675;52.870;-1.416;2023-04-23T05:27:54;82.05;;;38.15;;
28447;SDS011;15675;52.870;-1.416;2023-04-23T05:30:20;76.80;;;37.92;;
28447;SDS011;15675;52.870;-1.416;2023-04-23T05:32:45;69.57;;;37.08;;
28447;SDS011;15675;52.870;-1.416;2023-04-23T05:35:13;69.72;;;37.05;;
28447;SDS011;15675;52.870;-1.416;2023-04-23T05:37:38;72.47;;;35.97;;
28447;SDS011;15675;52.870;-1.416;2023-04-23T05:40:04;68.13;;;35.80;;
28447;SDS011;15675;52.870;-1.416;2023-04-23T05:42:31;71.93;;;35.60;;
28447;SDS011;15675;52.870;-1.416;2023-04-23T05:44:58;66.47;;;34.78;;
28447;SDS011;15675;52.870;-1.416;2023-04-23T05:47:24;68.03;;;34.75;;
28447;SDS011;15675;52.870;-1.416;2023-04-23T05:49:49;65.45;;;33.95;;
28447;SDS011;15675;52.870;-1.416;2023-04-23T05:52:15;67.80;;;33.55;;
28447;SDS011;15675;52.870;-1.416;2023-04-23T05:54:41;67.07;;;34.58;;
28447;SDS011;15675;52.870;-1.416;2023-04-23T05:57:07;67.18;;;34.22;;
28447;SDS011;15675;52.870;-1.416;2023-04-23T05:59:33;68.80;;;35.17;;
28447;SDS011;15675;52.870;-1.416;2023-04-23T06:01:59;69.85;;;33.53;;
28447;SDS011;15675;52.870;-1.416;2023-04-23T06:04:26;67.00;;;32.83;;
28447;SDS011;15675;52.870;-1.416;2023-04-23T06:06:51;66.82;;;30.05;;
28447;SDS011;15675;52.870;-1.416;2023-04-23T06:09:17;63.67;;;31.58;;
28447;SDS011;15675;52.870;-1.416;2023-04-23T06:11:44;62.63;;;31.45;;
28447;SDS011;15675;52.870;-1.416;2023-04-23T06:14:10;63.60;;;31.90;;
28447;SDS011;15675;52.870;-1.416;2023-04-23T06:16:36;63.88;;;30.55;;
28447;SDS011;15675;52.870;-1.416;2023-04-23T06:19:02;59.20;;;28.40;;
28447;SDS011;15675;52.870;-1.416;2023-04-23T06:21:28;62.63;;;30.25;;
28447;SDS011;15675;52.870;-1.416;2023-04-23T06:23:54;58.42;;;30.30;;
28447;SDS011;15675;52.870;-1.416;2023-04-23T06:26:19;55.00;;;28.35;;
28447;SDS011;15675;52.870;-1.416;2023-04-23T06:28:45;64.40;;;29.70;;
28447;SDS011;15675;52.870;-1.416;2023-04-23T06:31:11;65.53;;;30.48;;
28447;SDS011;15675;52.870;-1.416;2023-04-23T06:33:37;64.10;;;30.33;;
28447;SDS011;15675;52.870;-1.416;2023-04-23T06:36:03;67.07;;;30.92;;
28447;SDS011;15675;52.870;-1.416;2023-04-23T06:38:30;58.03;;;27.90;;
28447;SDS011;15675;52.870;-1.416;2023-04-23T06:40:55;63.22;;;29.95;;
28447;SDS011;15675;52.870;-1.416;2023-04-23T06:43:21;59.25;;;29.77;;
28447;SDS011;15675;52.870;-1.416;2023-04-23T06:45:47;61.58;;;28.35;;
28447;SDS011;15675;52.870;-1.416;2023-04-23T06:48:13;61.03;;;31.13;;
28447;SDS011;15675;52.870;-1.416;2023-04-23T06:50:38;64.10;;;30.00;;
28447;SDS011;15675;52.870;-1.416;2023-04-23T06:53:04;70.57;;;32.30;;
28447;SDS011;15675;52.870;-1.416;2023-04-23T06:55:30;57.28;;;31.02;;
28447;SDS011;15675;52.870;-1.416;2023-04-23T06:57:55;65.38;;;31.75;;
28447;SDS011;15675;52.870;-1.416;2023-04-23T07:00:21;64.93;;;31.15;;
28447;SDS011;15675;52.870;-1.416;2023-04-23T07:02:47;68.78;;;30.33;;
28447;SDS011;15675;52.870;-1.416;2023-04-23T07:05:13;64.28;;;32.08;;
28447;SDS011;15675;52.870;-1.416;2023-04-23T07:07:39;67.47;;;32.10;;
28447;SDS011;15675;52.870;-1.416;2023-04-23T07:10:07;66.45;;;30.73;;
28447;SDS011;15675;52.870;-1.416;2023-04-23T07:12:34;65.32;;;32.00;;
28447;SDS011;15675;52.870;-1.416;2023-04-23T07:15:00;69.28;;;30.42;;
28447;SDS011;15675;52.870;-1.416;2023-04-23T07:17:26;65.10;;;31.92;;
28447;SDS011;15675;52.870;-1.416;2023-04-23T07:19:51;71.95;;;32.85;;
28447;SDS011;15675;52.870;-1.416;2023-04-23T07:22:17;62.15;;;30.35;;
28447;SDS011;15675;52.870;-1.416;2023-04-23T07:24:42;64.63;;;30.55;;
28447;SDS011;15675;52.870;-1.416;2023-04-23T07:27:08;63.95;;;28.00;;
28447;SDS011;15675;52.870;-1.416;2023-04-23T07:29:33;63.63;;;30.80;;
28447;SDS011;15675;52.870;-1.416;2023-04-23T07:32:00;57.47;;;28.30;;
28447;SDS011;15675;52.870;-1.416;2023-04-23T07:34:25;60.30;;;31.20;;
28447;SDS011;15675;52.870;-1.416;2023-04-23T07:36:51;57.60;;;28.33;;
28447;SDS011;15675;52.870;-1.416;2023-04-23T07:39:17;60.95;;;28.48;;
28447;SDS011;15675;52.870;-1.416;2023-04-23T07:41:42;59.20;;;28.92;;
28447;SDS011;15675;52.870;-1.416;2023-04-23T07:44:08;58.03;;;27.50;;
28447;SDS011;15675;52.870;-1.416;2023-04-23T07:46:33;52.30;;;27.80;;
28447;SDS011;15675;52.870;-1.416;2023-04-23T07:48:59;58.22;;;26.25;;
28447;SDS011;15675;52.870;-1.416;2023-04-23T07:51:24;56.90;;;27.60;;
28447;SDS011;15675;52.870;-1.416;2023-04-23T07:53:54;51.45;;;26.60;;
28447;SDS011;15675;52.870;-1.416;2023-04-23T07:56:20;50.92;;;25.85;;
28447;SDS011;15675;52.870;-1.416;2023-04-23T07:58:48;50.60;;;25.33;;
28447;SDS011;15675;52.870;-1.416;2023-04-23T08:01:14;53.10;;;26.95;;
28447;SDS011;15675;52.870;-1.416;2023-04-23T08:03:40;53.88;;;27.27;;
28447;SDS011;15675;52.870;-1.416;2023-04-23T08:06:06;53.80;;;27.48;;
28447;SDS011;15675;52.870;-1.416;2023-04-23T08:08:31;52.80;;;27.23;;
28447;SDS011;15675;52.870;-1.416;2023-04-23T08:10:57;51.92;;;26.33;;
28447;SDS011;15675;52.870;-1.416;2023-04-23T08:13:23;55.83;;;27.73;;
28447;SDS011;15675;52.870;-1.416;2023-04-23T08:15:48;55.55;;;27.17;;
28447;SDS011;15675;52.870;-1.416;2023-04-23T08:18:16;56.10;;;28.02;;
28447;SDS011;15675;52.870;-1.416;2023-04-23T08:20:41;60.90;;;30.17;;
28447;SDS011;15675;52.870;-1.416;2023-04-23T08:23:07;61.00;;;28.90;;
28447;SDS011;15675;52.870;-1.416;2023-04-23T08:25:33;50.63;;;26.95;;
28447;SDS011;15675;52.870;-1.416;2023-04-23T08:27:59;57.67;;;29.30;;
28447;SDS011;15675;52.870;-1.416;2023-04-23T08:30:24;57.42;;;28.25;;
28447;SDS011;15675;52.870;-1.416;2023-04-23T08:32:50;57.70;;;29.05;;
28447;SDS011;15675;52.870;-1.416;2023-04-23T08:35:20;53.92;;;28.48;;
28447;SDS011;15675;52.870;-1.416;2023-04-23T08:37:47;59.60;;;26.88;;
28447;SDS011;15675;52.870;-1.416;2023-04-23T08:40:12;58.28;;;29.20;;
28447;SDS011;15675;52.870;-1.416;2023-04-23T08:45:25;64.45;;;29.45;;
28447;SDS011;15675;52.870;-1.416;2023-04-23T08:47:52;60.22;;;30.73;;
28447;SDS011;15675;52.870;-1.416;2023-04-23T08:50:22;68.90;;;32.63;;
28447;SDS011;15675;52.870;-1.416;2023-04-23T08:52:52;65.00;;;30.98;;
28447;SDS011;15675;52.870;-1.416;2023-04-23T08:55:18;64.00;;;31.50;;
28447;SDS011;15675;52.870;-1.416;2023-04-23T08:57:46;60.63;;;31.15;;
28447;SDS011;15675;52.870;-1.416;2023-04-23T09:00:13;74.95;;;34.72;;
28447;SDS011;15675;52.870;-1.416;2023-04-23T09:02:40;73.53;;;34.92;;
28447;SDS011;15675;52.870;-1.416;2023-04-23T09:05:07;65.88;;;34.70;;
28447;SDS011;15675;52.870;-1.416;2023-04-23T09:07:33;67.45;;;36.28;;
28447;SDS011;15675;52.870;-1.416;2023-04-23T09:10:00;72.22;;;36.92;;
28447;SDS011;15675;52.870;-1.416;2023-04-23T09:12:30;64.93;;;33.33;;
28447;SDS011;15675;52.870;-1.416;2023-04-23T09:14:57;65.50;;;36.30;;
28447;SDS011;15675;52.870;-1.416;2023-04-23T09:17:22;71.82;;;36.65;;
28447;SDS011;15675;52.870;-1.416;2023-04-23T09:19:51;67.65;;;35.47;;
28447;SDS011;15675;52.870;-1.416;2023-04-23T09:25:03;71.85;;;37.13;;
28447;SDS011;15675;52.870;-1.416;2023-04-23T09:27:29;76.97;;;38.42;;
28447;SDS011;15675;52.870;-1.416;2023-04-23T09:29:55;74.93;;;37.45;;
28447;SDS011;15675;52.870;-1.416;2023-04-23T09:32:29;70.85;;;33.88;;
28447;SDS011;15675;52.870;-1.416;2023-04-23T09:34:57;74.70;;;36.42;;
28447;SDS011;15675;52.870;-1.416;2023-04-23T09:37:26;79.45;;;39.80;;
28447;SDS011;15675;52.870;-1.416;2023-04-23T09:39:52;77.68;;;39.45;;
28447;SDS011;15675;52.870;-1.416;2023-04-23T09:42:23;79.07;;;38.85;;
28447;SDS011;15675;52.870;-1.416;2023-04-23T09:47:34;70.28;;;37.92;;
28447;SDS011;15675;52.870;-1.416;2023-04-23T09:50:02;71.25;;;37.25;;
28447;SDS011;15675;52.870;-1.416;2023-04-23T09:52:32;74.95;;;40.15;;
28447;SDS011;15675;52.870;-1.416;2023-04-23T09:55:01;72.20;;;37.83;;
28447;SDS011;15675;52.870;-1.416;2023-04-23T09:57:27;57.65;;;30.95;;
28447;SDS011;15675;52.870;-1.416;2023-04-23T09:59:55;71.82;;;38.08;;
28447;SDS011;15675;52.870;-1.416;2023-04-23T10:02:26;71.88;;;37.72;;
28447;SDS011;15675;52.870;-1.416;2023-04-23T10:04:53;60.75;;;33.72;;
28447;SDS011;15675;52.870;-1.416;2023-04-23T10:07:18;58.70;;;31.23;;
28447;SDS011;15675;52.870;-1.416;2023-04-23T10:09:44;57.67;;;32.95;;
28447;SDS011;15675;52.870;-1.416;2023-04-23T10:12:10;56.60;;;32.70;;
28447;SDS011;15675;52.870;-1.416;2023-04-23T10:14:37;51.97;;;29.60;;
28447;SDS011;15675;52.870;-1.416;2023-04-23T10:17:04;43.35;;;26.13;;
28447;SDS011;15675;52.870;-1.416;2023-04-23T10:19:31;44.60;;;26.70;;
28447;SDS011;15675;52.870;-1.416;2023-04-23T10:21:58;45.67;;;27.13;;
28447;SDS011;15675;52.870;-1.416;2023-04-23T10:24:26;41.33;;;25.83;;
28447;SDS011;15675;52.870;-1.416;2023-04-23T10:27:01;41.35;;;26.00;;
28447;SDS011;15675;52.870;-1.416;2023-04-23T10:29:31;42.75;;;25.73;;
28447;SDS011;15675;52.870;-1.416;2023-04-23T10:32:01;36.38;;;21.52;;
28447;SDS011;15675;52.870;-1.416;2023-04-23T10:34:29;36.38;;;22.30;;
28447;SDS011;15675;52.870;-1.416;2023-04-23T10:36:57;34.80;;;22.23;;
28447;SDS011;15675;52.870;-1.416;2023-04-23T10:39:25;32.92;;;20.17;;
28447;SDS011;15675;52.870;-1.416;2023-04-23T10:41:53;30.33;;;20.25;;
28447;SDS011;15675;52.870;-1.416;2023-04-23T10:44:19;31.10;;;18.98;;
28447;SDS011;15675;52.870;-1.416;2023-04-23T10:46:52;30.95;;;18.58;;
28447;SDS011;15675;52.870;-1.416;2023-04-23T10:49:19;28.55;;;19.77;;
28447;SDS011;15675;52.870;-1.416;2023-04-23T10:51:46;28.83;;;20.02;;
28447;SDS011;15675;52.870;-1.416;2023-04-23T10:54:13;27.83;;;19.33;;
28447;SDS011;15675;52.870;-1.416;2023-04-23T10:56:40;28.92;;;20.23;;
28447;SDS011;15675;52.870;-1.416;2023-04-23T10:59:07;29.90;;;20.08;;
28447;SDS011;15675;52.870;-1.416;2023-04-23T11:01:42;29.52;;;19.20;;
28447;SDS011;15675;52.870;-1.416;2023-04-23T11:04:24;30.90;;;19.70;;
28447;SDS011;15675;52.870;-1.416;2023-04-23T11:06:52;28.13;;;18.65;;
28447;SDS011;15675;52.870;-1.416;2023-04-23T11:14:54;32.85;;;21.48;;
28447;SDS011;15675;52.870;-1.416;2023-04-23T11:17:21;30.83;;;22.50;;
28447;SDS011;15675;52.870;-1.416;2023-04-23T11:22:34;30.98;;;22.80;;
28447;SDS011;15675;52.870;-1.416;2023-04-23T11:25:01;23.65;;;16.63;;
28447;SDS011;15675;52.870;-1.416;2023-04-23T11:27:28;31.40;;;22.63;;
28447;SDS011;15675;52.870;-1.416;2023-04-23T11:29:55;31.58;;;22.27;;
28447;SDS011;15675;52.870;-1.416;2023-04-23T11:32:21;29.55;;;20.85;;
28447;SDS011;15675;52.870;-1.416;2023-04-23T11:34:47;28.33;;;18.45;;
28447;SDS011;15675;52.870;-1.416;2023-04-23T11:37:15;25.20;;;18.00;;
28447;SDS011;15675;52.870;-1.416;2023-04-23T11:39:42;27.00;;;18.60;;
28447;SDS011;15675;52.870;-1.416;2023-04-23T11:42:12;29.80;;;19.48;;
28447;SDS011;15675;52.870;-1.416;2023-04-23T11:44:39;27.98;;;18.88;;
28447;SDS011;15675;52.870;-1.416;2023-04-23T11:47:09;28.38;;;18.58;;
28447;SDS011;15675;52.870;-1.416;2023-04-23T11:49:36;29.30;;;20.67;;
28447;SDS011;15675;52.870;-1.416;2023-04-23T11:52:07;32.42;;;20.65;;
28447;SDS011;15675;52.870;-1.416;2023-04-23T11:54:33;32.15;;;23.35;;
28447;SDS011;15675;52.870;-1.416;2023-04-23T11:56:59;29.35;;;21.38;;
28447;SDS011;15675;52.870;-1.416;2023-04-23T11:59:25;32.92;;;22.48;;
28447;SDS011;15675;52.870;-1.416;2023-04-23T12:01:53;33.75;;;22.40;;
28447;SDS011;15675;52.870;-1.416;2023-04-23T12:04:24;33.03;;;21.92;;
28447;SDS011;15675;52.870;-1.416;2023-04-23T12:06:51;33.97;;;22.45;;
28447;SDS011;15675;52.870;-1.416;2023-04-23T12:09:18;30.98;;;20.67;;
28447;SDS011;15675;52.870;-1.416;2023-04-23T12:11:45;30.85;;;20.85;;
28447;SDS011;15675;52.870;-1.416;2023-04-23T12:14:12;30.65;;;20.30;;
28447;SDS011;15675;52.870;-1.416;2023-04-23T12:16:43;30.90;;;21.17;;
28447;SDS011;15675;52.870;-1.416;2023-04-23T12:19:14;28.83;;;20.48;;
28447;SDS011;15675;52.870;-1.416;2023-04-23T12:21:50;32.17;;;20.95;;
28447;SDS011;15675;52.870;-1.416;2023-04-23T12:24:18;34.65;;;20.92;;
28447;SDS011;15675;52.870;-1.416;2023-04-23T12:26:47;29.92;;;20.58;;
28447;SDS011;15675;52.870;-1.416;2023-04-23T12:29:16;32.25;;;21.23;;
28447;SDS011;15675;52.870;-1.416;2023-04-23T12:31:42;29.80;;;19.20;;
28447;SDS011;15675;52.870;-1.416;2023-04-23T12:34:08;37.50;;;23.65;;
28447;SDS011;15675;52.870;-1.416;2023-04-23T12:36:35;35.25;;;21.90;;
28447;SDS011;15675;52.870;-1.416;2023-04-23T12:41:50;35.10;;;22.05;;
28447;SDS011;15675;52.870;-1.416;2023-04-23T12:44:17;33.72;;;22.00;;
28447;SDS011;15675;52.870;-1.416;2023-04-23T12:46:42;33.17;;;22.45;;
28447;SDS011;15675;52.870;-1.416;2023-04-23T12:49:08;36.45;;;24.13;;
28447;SDS011;15675;52.870;-1.416;2023-04-23T12:51:34;35.83;;;23.58;;
28447;SDS011;15675;52.870;-1.416;2023-04-23T12:53:59;35.53;;;24.48;;
28447;SDS011;15675;52.870;-1.416;2023-04-23T12:56:25;38.45;;;25.45;;
28447;SDS011;15675;52.870;-1.416;2023-04-23T12:58:51;36.00;;;23.83;;
28447;SDS011;15675;52.870;-1.416;2023-04-23T13:01:17;36.03;;;25.92;;
28447;SDS011;15675;52.870;-1.416;2023-04-23T13:03:42;35.47;;;23.70;;
28447;SDS011;15675;52.870;-1.416;2023-04-23T13:06:08;39.67;;;23.60;;
28447;SDS011;15675;52.870;-1.416;2023-04-23T13:08:33;38.85;;;27.08;;
28447;SDS011;15675;52.870;-1.416;2023-04-23T13:10:59;40.20;;;27.38;;
28447;SDS011;15675;52.870;-1.416;2023-04-23T13:13:25;39.03;;;26.63;;
28447;SDS011;15675;52.870;-1.416;2023-04-23T13:15:51;40.83;;;26.73;;
28447;SDS011;15675;52.870;-1.416;2023-04-23T13:18:17;44.30;;;28.20;;
28447;SDS011;15675;52.870;-1.416;2023-04-23T13:20:43;43.55;;;27.33;;
28447;SDS011;15675;52.870;-1.416;2023-04-23T13:23:09;41.63;;;28.85;;
28447;SDS011;15675;52.870;-1.416;2023-04-23T13:25:35;38.30;;;24.38;;
28447;SDS011;15675;52.870;-1.416;2023-04-23T13:28:01;42.53;;;29.67;;
28447;SDS011;15675;52.870;-1.416;2023-04-23T13:30:26;43.63;;;28.85;;
28447;SDS011;15675;52.870;-1.416;2023-04-23T13:32:52;42.38;;;28.15;;
28447;SDS011;15675;52.870;-1.416;2023-04-23T13:35:17;38.55;;;25.75;;
28447;SDS011;15675;52.870;-1.416;2023-04-23T13:37:43;37.55;;;25.02;;
28447;SDS011;15675;52.870;-1.416;2023-04-23T13:40:09;35.97;;;25.55;;
28447;SDS011;15675;52.870;-1.416;2023-04-23T13:42:35;33.78;;;22.20;;
28447;SDS011;15675;52.870;-1.416;2023-04-23T13:45:00;38.35;;;25.75;;
28447;SDS011;15675;52.870;-1.416;2023-04-23T13:47:29;35.90;;;24.52;;
28447;SDS011;15675;52.870;-1.416;2023-04-23T13:49:57;35.00;;;22.23;;
28447;SDS011;15675;52.870;-1.416;2023-04-23T13:52:24;37.10;;;25.10;;
28447;SDS011;15675;52.870;-1.416;2023-04-23T13:54:49;31.52;;;21.88;;
28447;SDS011;15675;52.870;-1.416;2023-04-23T13:57:16;40.50;;;24.73;;
28447;SDS011;15675;52.870;-1.416;2023-04-23T13:59:42;30.98;;;19.17;;
28447;SDS011;15675;52.870;-1.416;2023-04-23T14:02:08;33.53;;;22.40;;
28447;SDS011;15675;52.870;-1.416;2023-04-23T14:04:33;31.98;;;20.75;;
28447;SDS011;15675;52.870;-1.416;2023-04-23T14:06:59;33.28;;;20.83;;
28447;SDS011;15675;52.870;-1.416;2023-04-23T14:09:24;37.67;;;23.38;;
28447;SDS011;15675;52.870;-1.416;2023-04-23T14:11:50;42.72;;;24.88;;
28447;SDS011;15675;52.870;-1.416;2023-04-23T14:14:15;39.33;;;25.02;;
28447;SDS011;15675;52.870;-1.416;2023-04-23T14:16:42;39.33;;;25.00;;
28447;SDS011;15675;52.870;-1.416;2023-04-23T14:19:07;34.55;;;23.92;;
28447;SDS011;15675;52.870;-1.416;2023-04-23T14:21:33;35.55;;;22.77;;
28447;SDS011;15675;52.870;-1.416;2023-04-23T14:24:01;32.35;;;20.52;;